Trans Exeter — 9HA2572 — position and weather

sailwx.info

Track history (hours):
 
Tides and Currents Weather Stations Pressure Air Temp Water Temp Dewpoint Dewpoint Depression Visibility Wind Speed Wind Dir Waves Ship Positions

Trans Exeter

Last reported at 2015-Apr-18 12:34 UTC. Time now 2015-Apr-19 03:03 UTC.
Position N 35°60' W 005°27'.

Length 118 m; draft 4.9 m.

Type: Ship (hazmat cat C). MMSI: 248908000.

Date/timePositionNaut miles runAvg speedWind from/ knotsBaromVisibWave heightAir tempDewpointWater temp
2015-Apr-18 12:34N 35°60' W 005°27'1212.3
2015-Apr-18 11:33N 36°02' W 005°12'21615.4
2015-Apr-17 21:30N 37°09' W 000°56'1516.1
2015-Apr-17 20:33N 37°18' W 000°40'1515.4
2015-Apr-17 19:34N 37°27' W 000°24'1515.3
2015-Apr-17 18:33N 37°40' W 000°13'1515.4
2015-Apr-17 17:33N 37°53' W 000°04'1615.4
2015-Apr-17 16:33N 38°07' E 000°06'7715.4
2015-Apr-17 11:32N 39°11' E 001°01'1515.7
2015-Apr-17 10:33N 39°24' E 001°12'1815.8
2015-Apr-17 09:26N 39°38' E 001°26'1416.1
2015-Apr-17 08:33N 39°49' E 001°37'1615.8
2015-Apr-17 07:33N 40°02' E 001°50'1615.6
2015-Apr-17 06:33N 40°14' E 002°02'1615.8
2015-Apr-17 05:33N 40°27' E 002°14'1616.1
2015-Apr-17 04:33N 40°39' E 002°27'1615.6
2015-Apr-17 03:33N 40°52' E 002°40'1515.3
2015-Apr-17 02:33N 41°04' E 002°52'1715.9
2015-Apr-17 01:31N 41°18' E 003°05'1515.5
2015-Apr-17 00:33N 41°29' E 003°17'1515.4
2015-Apr-16 23:33N 41°41' E 003°30'1616.0
2015-Apr-16 22:34N 41°54' E 003°42'1515.0
2015-Apr-16 21:33N 42°06' E 003°55'1515.4
2015-Apr-16 20:33N 42°19' E 004°07'1615.5
2015-Apr-16 19:33N 42°31' E 004°19'1515.1
2015-Apr-16 18:33N 42°43' E 004°32'1515.3
2015-Apr-16 17:33N 42°55' E 004°44'1715.0
2015-Apr-16 16:26N 43°09' E 004°58'1112.6
2015-Apr-16 15:33N 43°20' E 004°58'6 6.1
2015-Apr-16 14:30N 43°25' E 004°53'0 0.0
2015-Apr-16 13:30N 43°25' E 004°53'0 0.0
2015-Apr-16 12:30N 43°25' E 004°53'0 0.0
2015-Apr-16 11:24N 43°25' E 004°53'0 0.0
2015-Apr-16 10:30N 43°25' E 004°53'0 0.0
2015-Apr-16 09:24N 43°25' E 004°53'0 0.0
2015-Apr-16 08:30N 43°25' E 004°53'0 0.0
2015-Apr-16 07:33N 43°25' E 004°53'0 0.0
2015-Apr-16 06:24N 43°25' E 004°53'0 0.0
2015-Apr-16 05:33N 43°25' E 004°53'0 0.0
2015-Apr-16 04:30N 43°25' E 004°53'0 0.0
2015-Apr-16 03:30N 43°25' E 004°53'0 0.0
2015-Apr-16 02:33N 43°25' E 004°53'0 0.0
2015-Apr-16 01:30N 43°25' E 004°53'0 0.0
2015-Apr-16 00:33N 43°25' E 004°53'0 0.0
2015-Apr-15 23:30N 43°25' E 004°53'0 0.0
2015-Apr-15 22:33N 43°25' E 004°53'0 0.0
2015-Apr-15 21:30N 43°25' E 004°53'0 0.0
2015-Apr-15 20:30N 43°25' E 004°53'0 0.0
2015-Apr-15 19:24N 43°25' E 004°53'2 2.4
2015-Apr-15 18:29N 43°24' E 004°56'0 0.1
2015-Apr-15 17:29N 43°24' E 004°56'0 0.0
2015-Apr-15 16:29N 43°24' E 004°56'0 0.0
2015-Apr-15 15:32N 43°24' E 004°56'0 0.0
2015-Apr-15 14:29N 43°24' E 004°56'0 0.0
2015-Apr-15 13:26N 43°24' E 004°56'0 0.0
2015-Apr-15 12:29N 43°24' E 004°56'0 0.0
2015-Apr-15 11:29N 43°24' E 004°56'0 0.0
2015-Apr-15 10:29N 43°24' E 004°56'0 0.0
2015-Apr-15 09:32N 43°24' E 004°56'0 0.0
2015-Apr-15 08:29N 43°24' E 004°56'0 0.1
2015-Apr-15 07:32N 43°24' E 004°56'0 0.0
2015-Apr-15 06:29N 43°24' E 004°56'0 0.0
2015-Apr-15 05:29N 43°24' E 004°56'0 0.0
2015-Apr-15 04:29N 43°24' E 004°56'0 0.0
2015-Apr-15 03:23N 43°24' E 004°56'0 0.0
2015-Apr-15 02:28N 43°24' E 004°56'0 0.0
2015-Apr-15 01:28N 43°24' E 004°56'0 0.0
2015-Apr-15 00:19N 43°24' E 004°56'0 0.0
2015-Apr-14 23:28N 43°24' E 004°56'0 0.0
2015-Apr-14 22:28N 43°24' E 004°56'0 0.0
2015-Apr-14 21:28N 43°24' E 004°56'0 0.0
2015-Apr-14 20:31N 43°24' E 004°56'0 0.0
2015-Apr-14 19:28N 43°24' E 004°56'0 0.0
2015-Apr-14 18:33N 43°24' E 004°56'3 2.6
2015-Apr-14 17:32N 43°24' E 004°60'0 0.0
2015-Apr-14 16:32N 43°24' E 004°60'0 0.0
2015-Apr-14 15:32N 43°24' E 004°60'0 0.0
2015-Apr-14 14:32N 43°24' E 004°60'0 0.0
2015-Apr-14 13:32N 43°24' E 004°60'0 0.0
2015-Apr-14 12:32N 43°24' E 004°60'0 0.0
2015-Apr-14 11:32N 43°24' E 004°60'0 0.0
2015-Apr-14 10:32N 43°24' E 004°60'0 0.0
2015-Apr-14 09:26N 43°24' E 004°60'0 0.0
2015-Apr-14 08:29N 43°24' E 004°60'0 0.0
2015-Apr-14 07:32N 43°24' E 004°60'0 0.0
2015-Apr-14 06:14N 43°24' E 004°60'0 0.0
2015-Apr-14 05:20N 43°24' E 004°60'0 0.0
2015-Apr-14 04:32N 43°24' E 004°60'0 0.0
2015-Apr-14 03:26N 43°24' E 004°60'0 0.0
2015-Apr-14 02:32N 43°24' E 004°60'0 0.0
2015-Apr-14 01:32N 43°24' E 004°60'0 0.0
2015-Apr-14 00:29N 43°24' E 004°60'0 0.0
2015-Apr-13 23:32N 43°24' E 004°60'0 0.2
2015-Apr-13 22:33N 43°24' E 004°60'1 1.2
2015-Apr-13 21:29N 43°24' E 004°58'0 0.0
2015-Apr-13 20:33N 43°24' E 004°58'0 0.0
2015-Apr-13 19:33N 43°24' E 004°58'0 0.0
2015-Apr-13 18:33N 43°24' E 004°58'0 0.0
2015-Apr-13 17:33N 43°24' E 004°58'0 0.0
2015-Apr-13 16:33N 43°24' E 004°58'0 0.0
2015-Apr-13 15:33N 43°24' E 004°58'0 0.0
2015-Apr-13 14:33N 43°24' E 004°58'0 0.0
2015-Apr-13 13:33N 43°24' E 004°58'0 0.0
2015-Apr-13 12:33N 43°24' E 004°58'0 0.0
2015-Apr-13 11:33N 43°24' E 004°58'0 0.0
2015-Apr-13 10:33N 43°24' E 004°58'0 0.0
2015-Apr-13 09:33N 43°24' E 004°58'1 0.7
2015-Apr-13 08:33N 43°23' E 004°58'9 9.0
2015-Apr-13 07:33N 43°15' E 005°01'2914.0
2015-Apr-13 05:29N 42°50' E 004°41'5814.2
2015-Apr-13 01:25N 42°04' E 003°54'5514.1
2015-Apr-12 21:33N 41°28' E 002°58'1414.2
2015-Apr-12 20:32N 41°19' E 002°43'1712.7
2015-Apr-12 19:14N 41°13' E 002°23'10 0.2
2015-Apr-11 01:17N 41°18' E 002°11'2 0.1
2015-Apr-09 18:23N 41°20' E 002°11'0 0.0
2015-Apr-09 17:24N 41°20' E 002°11'0 0.0
2015-Apr-08 19:11N 41°20' E 002°11'0 0.0
2015-Apr-08 17:05N 41°20' E 002°11'0 0.0
2015-Apr-08 16:29N 41°20' E 002°11'0 0.0
2015-Apr-08 15:05N 41°20' E 002°11'  
Track history (hours):
 
Tides and Currents Weather Stations Pressure Air Temp Water Temp Dewpoint Dewpoint Depression Visibility Wind Speed Wind Dir Waves Ship Positions

Trans Exeter

Last reported at 2015-Apr-18 12:34 UTC. Time now 2015-Apr-19 03:03 UTC.
Position N 35°60' W 005°27'.

Length 118 m; draft 4.9 m.

Type: Ship (hazmat cat C). MMSI: 248908000.

Date/timePositionNaut miles runAvg speedWind from/ knotsBaromVisibWave heightAir tempDewpointWater temp
2015-Apr-18 12:34N 35°60' W 005°27'1212.3
2015-Apr-18 11:33N 36°02' W 005°12'21615.4
2015-Apr-17 21:30N 37°09' W 000°56'1516.1
2015-Apr-17 20:33N 37°18' W 000°40'1515.4
2015-Apr-17 19:34N 37°27' W 000°24'1515.3
2015-Apr-17 18:33N 37°40' W 000°13'1515.4
2015-Apr-17 17:33N 37°53' W 000°04'1615.4
2015-Apr-17 16:33N 38°07' E 000°06'7715.4
2015-Apr-17 11:32N 39°11' E 001°01'1515.7
2015-Apr-17 10:33N 39°24' E 001°12'1815.8
2015-Apr-17 09:26N 39°38' E 001°26'1416.1
2015-Apr-17 08:33N 39°49' E 001°37'1615.8
2015-Apr-17 07:33N 40°02' E 001°50'1615.6
2015-Apr-17 06:33N 40°14' E 002°02'1615.8
2015-Apr-17 05:33N 40°27' E 002°14'1616.1
2015-Apr-17 04:33N 40°39' E 002°27'1615.6
2015-Apr-17 03:33N 40°52' E 002°40'1515.3
2015-Apr-17 02:33N 41°04' E 002°52'1715.9
2015-Apr-17 01:31N 41°18' E 003°05'1515.5
2015-Apr-17 00:33N 41°29' E 003°17'1515.4
2015-Apr-16 23:33N 41°41' E 003°30'1616.0
2015-Apr-16 22:34N 41°54' E 003°42'1515.0
2015-Apr-16 21:33N 42°06' E 003°55'1515.4
2015-Apr-16 20:33N 42°19' E 004°07'1615.5
2015-Apr-16 19:33N 42°31' E 004°19'1515.1
2015-Apr-16 18:33N 42°43' E 004°32'1515.3
2015-Apr-16 17:33N 42°55' E 004°44'1715.0
2015-Apr-16 16:26N 43°09' E 004°58'1112.6
2015-Apr-16 15:33N 43°20' E 004°58'6 6.1
2015-Apr-16 14:30N 43°25' E 004°53'0 0.0
2015-Apr-16 13:30N 43°25' E 004°53'0 0.0
2015-Apr-16 12:30N 43°25' E 004°53'0 0.0
2015-Apr-16 11:24N 43°25' E 004°53'0 0.0
2015-Apr-16 10:30N 43°25' E 004°53'0 0.0
2015-Apr-16 09:24N 43°25' E 004°53'0 0.0
2015-Apr-16 08:30N 43°25' E 004°53'0 0.0
2015-Apr-16 07:33N 43°25' E 004°53'0 0.0
2015-Apr-16 06:24N 43°25' E 004°53'0 0.0
2015-Apr-16 05:33N 43°25' E 004°53'0 0.0
2015-Apr-16 04:30N 43°25' E 004°53'0 0.0
2015-Apr-16 03:30N 43°25' E 004°53'0 0.0
2015-Apr-16 02:33N 43°25' E 004°53'0 0.0
2015-Apr-16 01:30N 43°25' E 004°53'0 0.0
2015-Apr-16 00:33N 43°25' E 004°53'0 0.0
2015-Apr-15 23:30N 43°25' E 004°53'0 0.0
2015-Apr-15 22:33N 43°25' E 004°53'0 0.0
2015-Apr-15 21:30N 43°25' E 004°53'0 0.0
2015-Apr-15 20:30N 43°25' E 004°53'0 0.0
2015-Apr-15 19:24N 43°25' E 004°53'2 2.4
2015-Apr-15 18:29N 43°24' E 004°56'0 0.1
2015-Apr-15 17:29N 43°24' E 004°56'0 0.0
2015-Apr-15 16:29N 43°24' E 004°56'0 0.0
2015-Apr-15 15:32N 43°24' E 004°56'0 0.0
2015-Apr-15 14:29N 43°24' E 004°56'0 0.0
2015-Apr-15 13:26N 43°24' E 004°56'0 0.0
2015-Apr-15 12:29N 43°24' E 004°56'0 0.0
2015-Apr-15 11:29N 43°24' E 004°56'0 0.0
2015-Apr-15 10:29N 43°24' E 004°56'0 0.0
2015-Apr-15 09:32N 43°24' E 004°56'0 0.0
2015-Apr-15 08:29N 43°24' E 004°56'0 0.1
2015-Apr-15 07:32N 43°24' E 004°56'0 0.0
2015-Apr-15 06:29N 43°24' E 004°56'0 0.0
2015-Apr-15 05:29N 43°24' E 004°56'0 0.0
2015-Apr-15 04:29N 43°24' E 004°56'0 0.0
2015-Apr-15 03:23N 43°24' E 004°56'0 0.0
2015-Apr-15 02:28N 43°24' E 004°56'0 0.0
2015-Apr-15 01:28N 43°24' E 004°56'0 0.0
2015-Apr-15 00:19N 43°24' E 004°56'0 0.0
2015-Apr-14 23:28N 43°24' E 004°56'0 0.0
2015-Apr-14 22:28N 43°24' E 004°56'0 0.0
2015-Apr-14 21:28N 43°24' E 004°56'0 0.0
2015-Apr-14 20:31N 43°24' E 004°56'0 0.0
2015-Apr-14 19:28N 43°24' E 004°56'0 0.0
2015-Apr-14 18:33N 43°24' E 004°56'3 2.6
2015-Apr-14 17:32N 43°24' E 004°60'0 0.0
2015-Apr-14 16:32N 43°24' E 004°60'0 0.0
2015-Apr-14 15:32N 43°24' E 004°60'0 0.0
2015-Apr-14 14:32N 43°24' E 004°60'0 0.0
2015-Apr-14 13:32N 43°24' E 004°60'0 0.0
2015-Apr-14 12:32N 43°24' E 004°60'0 0.0
2015-Apr-14 11:32N 43°24' E 004°60'0 0.0
2015-Apr-14 10:32N 43°24' E 004°60'0 0.0
2015-Apr-14 09:26N 43°24' E 004°60'0 0.0
2015-Apr-14 08:29N 43°24' E 004°60'0 0.0
2015-Apr-14 07:32N 43°24' E 004°60'0 0.0
2015-Apr-14 06:14N 43°24' E 004°60'0 0.0
2015-Apr-14 05:20N 43°24' E 004°60'0 0.0
2015-Apr-14 04:32N 43°24' E 004°60'0 0.0
2015-Apr-14 03:26N 43°24' E 004°60'0 0.0
2015-Apr-14 02:32N 43°24' E 004°60'0 0.0
2015-Apr-14 01:32N 43°24' E 004°60'0 0.0
2015-Apr-14 00:29N 43°24' E 004°60'0 0.0
2015-Apr-13 23:32N 43°24' E 004°60'0 0.2
2015-Apr-13 22:33N 43°24' E 004°60'1 1.2
2015-Apr-13 21:29N 43°24' E 004°58'0 0.0
2015-Apr-13 20:33N 43°24' E 004°58'0 0.0
2015-Apr-13 19:33N 43°24' E 004°58'0 0.0
2015-Apr-13 18:33N 43°24' E 004°58'0 0.0
2015-Apr-13 17:33N 43°24' E 004°58'0 0.0
2015-Apr-13 16:33N 43°24' E 004°58'0 0.0
2015-Apr-13 15:33N 43°24' E 004°58'0 0.0
2015-Apr-13 14:33N 43°24' E 004°58'0 0.0
2015-Apr-13 13:33N 43°24' E 004°58'0 0.0
2015-Apr-13 12:33N 43°24' E 004°58'0 0.0
2015-Apr-13 11:33N 43°24' E 004°58'0 0.0
2015-Apr-13 10:33N 43°24' E 004°58'0 0.0
2015-Apr-13 09:33N 43°24' E 004°58'1 0.7
2015-Apr-13 08:33N 43°23' E 004°58'9 9.0
2015-Apr-13 07:33N 43°15' E 005°01'2914.0
2015-Apr-13 05:29N 42°50' E 004°41'5814.2
2015-Apr-13 01:25N 42°04' E 003°54'5514.1
2015-Apr-12 21:33N 41°28' E 002°58'1414.2
2015-Apr-12 20:32N 41°19' E 002°43'1712.7
2015-Apr-12 19:14N 41°13' E 002°23'10 0.2
2015-Apr-11 01:17N 41°18' E 002°11'2 0.1
2015-Apr-09 18:23N 41°20' E 002°11'0 0.0
2015-Apr-09 17:24N 41°20' E 002°11'0 0.0
2015-Apr-08 19:11N 41°20' E 002°11'0 0.0
2015-Apr-08 17:05N 41°20' E 002°11'0 0.0
2015-Apr-08 16:29N 41°20' E 002°11'0 0.0
2015-Apr-08 15:05N 41°20' E 002°11'  

Dump ship's entire track history